Time,TemperatureF,DewpointF,PressureIn,WindDirection,WindDirectionDegrees,WindSpeedMPH,WindSpeedGustMPH,Humidity,HourlyPrecipIn,Conditions,Clouds,dailyrainin,SolarRadiationWatts/m^2,SoftwareType,DateUTC
2013-01-23 00:02:00,15.0,10.0,-100.00,NNW,342,0.0,5.0,79,0.00,,,0.01,0.000000,,2013-01-23 07:02:00,
2013-01-23 00:12:00,15.0,10.0,-100.00,NNW,342,0.0,5.0,79,0.00,,,0.01,0.000000,,2013-01-23 07:12:00,
2013-01-23 00:22:00,15.0,10.0,-100.00,NNW,342,0.0,5.0,79,0.00,,,0.01,0.000000,,2013-01-23 07:22:00,
2013-01-23 00:33:00,15.0,10.0,-100.00,NNW,342,0.0,5.0,79,0.00,,,0.01,0.000000,,2013-01-23 07:33:00,
2013-01-23 00:42:00,15.0,10.0,-100.00,South,179,0.0,3.0,79,0.00,,,0.01,0.000000,,2013-01-23 07:42:00,
2013-01-23 01:02:00,15.0,10.0,-100.00,South,179,0.0,3.0,79,0.00,,,0.01,0.000000,,2013-01-23 08:02:00,
2013-01-23 01:12:00,15.0,10.0,-100.00,South,179,0.0,3.0,79,0.00,,,0.01,0.000000,,2013-01-23 08:12:00,
2013-01-23 01:22:00,15.0,10.0,-100.00,South,179,0.0,3.0,79,0.00,,,0.01,0.000000,,2013-01-23 08:22:00,
2013-01-23 01:32:00,15.0,10.0,-100.00,South,179,0.0,3.0,79,0.00,,,0.01,0.000000,,2013-01-23 08:32:00,
2013-01-23 01:42:00,16.0,10.0,-100.00,NNW,335,3.0,5.0,78,0.00,,,0.01,0.000000,,2013-01-23 08:42:00,
2013-01-23 02:02:00,16.0,10.0,-100.00,NNW,335,3.0,5.0,78,0.00,,,0.01,0.000000,,2013-01-23 09:02:00,
2013-01-23 02:12:00,16.0,10.0,-100.00,NNW,335,3.0,5.0,78,0.00,,,0.01,0.000000,,2013-01-23 09:12:00,
2013-01-23 02:22:00,16.0,10.0,-100.00,NNW,335,3.0,5.0,78,0.00,,,0.01,0.000000,,2013-01-23 09:22:00,
2013-01-23 02:32:00,16.0,10.0,-100.00,NNW,335,3.0,5.0,78,0.00,,,0.01,0.000000,,2013-01-23 09:32:00,
2013-01-23 02:42:00,18.0,11.0,-100.00,NE,46,1.0,5.0,75,0.00,,,-99.99,0.000000,,2013-01-23 09:42:00,
2013-01-23 03:12:00,18.0,11.0,-100.00,NE,46,1.0,5.0,75,0.00,,,-99.99,0.000000,,2013-01-23 10:12:00,
2013-01-23 03:22:00,18.0,11.0,-100.00,NE,46,1.0,5.0,75,0.00,,,-99.99,0.000000,,2013-01-23 10:22:00,
2013-01-23 03:32:00,18.0,11.0,-100.00,NE,46,1.0,5.0,75,0.00,,,-99.99,0.000000,,2013-01-23 10:32:00,
2013-01-23 03:42:00,18.0,12.0,-100.00,ENE,67,2.0,3.0,77,0.00,,,0.01,0.000000,,2013-01-23 10:42:00,
2013-01-23 04:02:00,18.0,12.0,-100.00,ENE,67,2.0,3.0,77,0.00,,,0.01,0.000000,,2013-01-23 11:02:00,
2013-01-23 04:12:00,18.0,12.0,-100.00,ENE,67,2.0,3.0,77,0.00,,,0.01,0.000000,,2013-01-23 11:12:00,
2013-01-23 04:22:00,18.0,12.0,-100.00,ENE,67,2.0,3.0,77,0.00,,,0.01,0.000000,,2013-01-23 11:22:00,
2013-01-23 04:32:00,18.0,12.0,-100.00,ENE,67,2.0,3.0,77,0.00,,,0.01,0.000000,,2013-01-23 11:32:00,
2013-01-23 04:42:00,18.0,12.0,-100.00,North,9,0.0,2.0,78,0.00,,,0.01,0.000000,,2013-01-23 11:42:00,
2013-01-23 05:03:00,18.0,12.0,-100.00,North,9,0.0,2.0,78,0.00,,,0.01,0.000000,,2013-01-23 12:03:00,
2013-01-23 05:12:00,18.0,12.0,-100.00,North,9,0.0,2.0,78,0.00,,,0.01,0.000000,,2013-01-23 12:12:00,
2013-01-23 05:22:00,18.0,12.0,-100.00,North,9,0.0,2.0,78,0.00,,,0.01,0.000000,,2013-01-23 12:22:00,
2013-01-23 05:33:00,18.0,12.0,-100.00,North,9,0.0,2.0,78,0.00,,,0.01,0.000000,,2013-01-23 12:33:00,
2013-01-23 05:42:00,18.0,12.0,-100.00,North,7,0.0,3.0,78,0.00,,,0.01,0.000000,,2013-01-23 12:42:00,
2013-01-23 06:03:00,18.0,12.0,-100.00,North,7,0.0,3.0,78,0.00,,,0.01,0.000000,,2013-01-23 13:03:00,
2013-01-23 06:12:00,18.0,12.0,-100.00,North,7,0.0,3.0,78,0.00,,,0.01,0.000000,,2013-01-23 13:12:00,
2013-01-23 06:23:00,18.0,12.0,-100.00,North,7,0.0,3.0,78,0.00,,,0.01,0.000000,,2013-01-23 13:23:00,
2013-01-23 06:33:00,18.0,12.0,-100.00,North,7,0.0,3.0,78,0.00,,,0.01,0.000000,,2013-01-23 13:33:00,
2013-01-23 06:42:00,17.0,12.0,-100.00,East,91,0.0,2.0,79,0.00,,,0.01,0.000000,,2013-01-23 13:42:00,
2013-01-23 07:02:00,17.0,12.0,-100.00,East,91,0.0,2.0,79,0.00,,,0.01,0.000000,,2013-01-23 14:02:00,
2013-01-23 07:12:00,17.0,12.0,-100.00,East,91,0.0,2.0,79,0.00,,,0.01,0.000000,,2013-01-23 14:12:00,
2013-01-23 07:23:00,17.0,12.0,-100.00,East,91,0.0,2.0,79,0.00,,,0.01,0.000000,,2013-01-23 14:23:00,
2013-01-23 07:33:00,17.0,12.0,-100.00,East,91,0.0,2.0,79,0.00,,,0.01,0.000000,,2013-01-23 14:33:00,
2013-01-23 07:42:00,17.0,11.0,-100.00,ESE,108,1.0,4.0,77,0.00,,,0.01,0.000000,,2013-01-23 14:42:00,
2013-01-23 08:02:00,17.0,11.0,-100.00,ESE,108,1.0,4.0,77,0.00,,,0.01,0.000000,,2013-01-23 15:02:00,
2013-01-23 08:12:00,17.0,11.0,-100.00,ESE,108,1.0,4.0,77,0.00,,,0.01,0.000000,,2013-01-23 15:12:00,
2013-01-23 08:22:00,17.0,11.0,-100.00,ESE,108,1.0,4.0,77,0.00,,,0.01,0.000000,,2013-01-23 15:22:00,
2013-01-23 08:33:00,17.0,11.0,-100.00,ESE,108,1.0,4.0,77,0.00,,,0.01,0.000000,,2013-01-23 15:33:00,
2013-01-23 08:42:00,17.0,12.0,-100.00,NW,304,2.0,4.0,79,0.00,,,0.01,6.000000,,2013-01-23 15:42:00,
2013-01-23 09:03:00,17.0,12.0,-100.00,NW,304,2.0,4.0,79,0.00,,,0.01,6.000000,,2013-01-23 16:03:00,
2013-01-23 09:12:00,17.0,12.0,-100.00,NW,304,2.0,4.0,79,0.00,,,0.01,6.000000,,2013-01-23 16:12:00,
2013-01-23 09:22:00,17.0,12.0,-100.00,NW,304,2.0,4.0,79,0.00,,,0.01,6.000000,,2013-01-23 16:22:00,
2013-01-23 09:32:00,17.0,12.0,-100.00,NW,304,2.0,4.0,79,0.00,,,0.01,6.000000,,2013-01-23 16:32:00,
2013-01-23 09:42:00,17.0,11.0,-100.00,NNW,344,3.0,5.0,78,0.00,,,0.01,85.000000,,2013-01-23 16:42:00,
2013-01-23 10:03:00,17.0,11.0,-100.00,NNW,344,3.0,5.0,78,0.00,,,0.01,85.000000,,2013-01-23 17:03:00,
2013-01-23 10:12:00,17.0,11.0,-100.00,NNW,344,3.0,5.0,78,0.00,,,0.01,85.000000,,2013-01-23 17:12:00,
2013-01-23 10:22:00,17.0,11.0,-100.00,NNW,344,3.0,5.0,78,0.00,,,0.01,85.000000,,2013-01-23 17:22:00,
2013-01-23 10:33:00,17.0,11.0,-100.00,NNW,344,3.0,5.0,78,0.00,,,0.01,85.000000,,2013-01-23 17:33:00,
2013-01-23 10:42:00,23.0,14.0,-100.00,SE,135,2.0,4.0,67,0.00,,,0.01,184.000000,,2013-01-23 17:42:00,
2013-01-23 11:03:00,23.0,14.0,-100.00,SE,135,2.0,4.0,67,0.00,,,0.01,184.000000,,2013-01-23 18:03:00,
2013-01-23 11:12:00,23.0,14.0,-100.00,SE,135,2.0,4.0,67,0.00,,,0.01,184.000000,,2013-01-23 18:12:00,
2013-01-23 11:23:00,23.0,14.0,-100.00,SE,135,2.0,4.0,67,0.00,,,0.01,184.000000,,2013-01-23 18:23:00,
2013-01-23 11:32:00,23.0,14.0,-100.00,SE,135,2.0,4.0,67,0.00,,,0.01,184.000000,,2013-01-23 18:32:00,
2013-01-23 11:42:00,26.0,14.0,-100.00,East,98,1.0,4.0,61,0.00,,,0.00,217.000000,,2013-01-23 18:42:00,
2013-01-23 12:02:00,26.0,14.0,-100.00,East,98,1.0,4.0,61,0.00,,,0.00,217.000000,,2013-01-23 19:02:00,
2013-01-23 12:12:00,26.0,14.0,-100.00,East,98,1.0,4.0,61,0.00,,,0.00,217.000000,,2013-01-23 19:12:00,
2013-01-23 12:22:00,26.0,14.0,-100.00,East,98,1.0,4.0,61,0.00,,,0.00,217.000000,,2013-01-23 19:22:00,
2013-01-23 12:33:00,26.0,14.0,-100.00,East,98,1.0,4.0,61,0.00,,,0.00,217.000000,,2013-01-23 19:33:00,
2013-01-23 12:42:00,26.0,14.0,-100.00,ESE,102,3.0,4.0,60,0.00,,,0.00,233.000000,,2013-01-23 19:42:00,
2013-01-23 13:03:00,26.0,14.0,-100.00,ESE,102,3.0,4.0,60,0.00,,,0.00,233.000000,,2013-01-23 20:03:00,
2013-01-23 13:12:00,26.0,14.0,-100.00,ESE,102,3.0,4.0,60,0.00,,,0.00,233.000000,,2013-01-23 20:12:00,
2013-01-23 13:22:00,26.0,14.0,-100.00,ESE,102,3.0,4.0,60,0.00,,,0.00,233.000000,,2013-01-23 20:22:00,
2013-01-23 13:32:00,26.0,14.0,-100.00,ESE,102,3.0,4.0,60,0.00,,,0.00,233.000000,,2013-01-23 20:32:00,
2013-01-23 13:42:00,26.0,15.0,-100.00,WNW,299,0.0,3.0,62,0.00,,,0.00,241.000000,,2013-01-23 20:42:00,
2013-01-23 14:02:00,26.0,15.0,-100.00,WNW,299,0.0,3.0,62,0.00,,,0.00,241.000000,,2013-01-23 21:02:00,
2013-01-23 14:12:00,26.0,15.0,-100.00,WNW,299,0.0,3.0,62,0.00,,,0.00,241.000000,,2013-01-23 21:12:00,
2013-01-23 14:22:00,26.0,15.0,-100.00,WNW,299,0.0,3.0,62,0.00,,,0.00,241.000000,,2013-01-23 21:22:00,
2013-01-23 14:33:00,26.0,15.0,-100.00,WNW,299,0.0,3.0,62,0.00,,,0.00,241.000000,,2013-01-23 21:33:00,
2013-01-23 14:42:00,21.0,13.0,-100.00,ENE,70,5.0,8.0,70,0.00,,,0.00,153.000000,,2013-01-23 21:42:00,
2013-01-23 15:02:00,21.0,13.0,-100.00,ENE,70,5.0,8.0,70,0.00,,,0.00,153.000000,,2013-01-23 22:02:00,
2013-01-23 15:12:00,21.0,13.0,-100.00,ENE,70,5.0,8.0,70,0.00,,,0.00,153.000000,,2013-01-23 22:12:00,
2013-01-23 15:22:00,21.0,13.0,-100.00,ENE,70,5.0,8.0,70,0.00,,,0.00,153.000000,,2013-01-23 22:22:00,
2013-01-23 15:33:00,21.0,13.0,-100.00,ENE,70,5.0,8.0,70,0.00,,,0.00,153.000000,,2013-01-23 22:33:00,
2013-01-23 15:42:00,22.0,14.0,-100.00,SE,128,1.0,10.0,71,0.00,,,0.00,62.000000,,2013-01-23 22:42:00,
2013-01-23 16:03:00,22.0,14.0,-100.00,SE,128,1.0,10.0,71,0.00,,,0.00,62.000000,,2013-01-23 23:03:00,
2013-01-23 16:12:00,22.0,14.0,-100.00,SE,128,1.0,10.0,71,0.00,,,0.00,62.000000,,2013-01-23 23:12:00,
2013-01-23 16:22:00,22.0,14.0,-100.00,SE,128,1.0,10.0,71,0.00,,,0.00,62.000000,,2013-01-23 23:22:00,
2013-01-23 16:33:00,22.0,14.0,-100.00,SE,128,1.0,10.0,71,0.00,,,0.00,62.000000,,2013-01-23 23:33:00,
2013-01-23 16:42:00,20.0,15.0,-100.00,NNW,333,3.0,5.0,79,0.00,,,0.00,48.000000,,2013-01-23 23:42:00,
2013-01-23 17:03:00,20.0,15.0,-100.00,NNW,333,3.0,5.0,79,0.00,,,0.00,48.000000,,2013-01-24 00:03:00,
2013-01-23 17:12:00,20.0,15.0,-100.00,NNW,333,3.0,5.0,79,0.00,,,0.00,48.000000,,2013-01-24 00:12:00,
2013-01-23 17:22:00,20.0,15.0,-100.00,NNW,333,3.0,5.0,79,0.00,,,0.00,48.000000,,2013-01-24 00:22:00,
2013-01-23 17:32:00,20.0,15.0,-100.00,NNW,333,3.0,5.0,79,0.00,,,0.00,48.000000,,2013-01-24 00:32:00,
2013-01-23 17:42:00,22.0,14.0,-100.00,ENE,64,2.0,7.0,71,0.00,,,0.00,18.000000,,2013-01-24 00:42:00,
2013-01-23 18:03:00,22.0,14.0,-100.00,ENE,64,2.0,7.0,71,0.00,,,0.00,18.000000,,2013-01-24 01:03:00,
2013-01-23 18:12:00,22.0,14.0,-100.00,ENE,64,2.0,7.0,71,0.00,,,0.00,18.000000,,2013-01-24 01:12:00,
2013-01-23 18:22:00,22.0,14.0,-100.00,ENE,64,2.0,7.0,71,0.00,,,0.00,18.000000,,2013-01-24 01:22:00,
2013-01-23 18:33:00,22.0,14.0,-100.00,ENE,64,2.0,7.0,71,0.00,,,0.00,18.000000,,2013-01-24 01:33:00,
2013-01-23 18:42:00,19.0,13.0,-100.00,East,92,2.0,8.0,78,0.00,,,0.00,0.000000,,2013-01-24 01:42:00,
2013-01-23 19:02:00,19.0,13.0,-100.00,East,92,2.0,8.0,78,0.00,,,0.00,0.000000,,2013-01-24 02:02:00,
2013-01-23 19:12:00,19.0,13.0,-100.00,East,92,2.0,8.0,78,0.00,,,0.00,0.000000,,2013-01-24 02:12:00,
2013-01-23 19:22:00,19.0,13.0,-100.00,East,92,2.0,8.0,78,0.00,,,0.00,0.000000,,2013-01-24 02:22:00,
2013-01-23 19:32:00,19.0,13.0,-100.00,East,92,2.0,8.0,78,0.00,,,0.00,0.000000,,2013-01-24 02:32:00,
2013-01-23 19:42:00,22.0,15.0,-100.00,NW,311,4.0,10.0,74,0.00,,,0.00,0.000000,,2013-01-24 02:42:00,
2013-01-23 20:02:00,22.0,15.0,-100.00,NW,311,4.0,10.0,74,0.00,,,0.00,0.000000,,2013-01-24 03:02:00,
2013-01-23 20:12:00,22.0,15.0,-100.00,NW,311,4.0,10.0,74,0.00,,,0.00,0.000000,,2013-01-24 03:12:00,
2013-01-23 20:22:00,22.0,15.0,-100.00,NW,311,4.0,10.0,74,0.00,,,0.00,0.000000,,2013-01-24 03:22:00,
2013-01-23 20:32:00,22.0,15.0,-100.00,NW,311,4.0,10.0,74,0.00,,,0.00,0.000000,,2013-01-24 03:32:00,
2013-01-23 20:42:00,22.0,16.0,-100.00,WSW,245,2.0,9.0,76,0.00,,,0.00,0.000000,,2013-01-24 03:42:00,
2013-01-23 21:02:00,22.0,16.0,-100.00,WSW,245,2.0,9.0,76,0.00,,,0.00,0.000000,,2013-01-24 04:02:00,
2013-01-23 21:12:00,22.0,16.0,-100.00,WSW,245,2.0,9.0,76,0.00,,,0.00,0.000000,,2013-01-24 04:12:00,
2013-01-23 21:22:00,22.0,16.0,-100.00,WSW,245,2.0,9.0,76,0.00,,,0.00,0.000000,,2013-01-24 04:22:00,
2013-01-23 21:32:00,22.0,16.0,-100.00,WSW,245,2.0,9.0,76,0.00,,,0.00,0.000000,,2013-01-24 04:32:00,
2013-01-23 21:42:00,22.0,15.0,-100.00,NNW,339,3.0,10.0,75,0.00,,,0.00,0.000000,,2013-01-24 04:42:00,
2013-01-23 22:03:00,22.0,15.0,-100.00,NNW,339,3.0,10.0,75,0.00,,,0.00,0.000000,,2013-01-24 05:03:00,
2013-01-23 22:12:00,22.0,15.0,-100.00,NNW,339,3.0,10.0,75,0.00,,,0.00,0.000000,,2013-01-24 05:12:00,
2013-01-23 22:22:00,22.0,15.0,-100.00,NNW,339,3.0,10.0,75,0.00,,,0.00,0.000000,,2013-01-24 05:22:00,
2013-01-23 22:32:00,22.0,15.0,-100.00,NNW,339,3.0,10.0,75,0.00,,,0.00,0.000000,,2013-01-24 05:32:00,
2013-01-23 22:42:00,26.0,18.0,-100.00,NNW,348,2.0,7.0,71,0.00,,,0.00,0.000000,,2013-01-24 05:42:00,
2013-01-23 23:02:00,26.0,18.0,-100.00,NNW,348,2.0,7.0,71,0.00,,,0.00,0.000000,,2013-01-24 06:02:00,
2013-01-23 23:12:00,26.0,18.0,-100.00,NNW,348,2.0,7.0,71,0.00,,,0.00,0.000000,,2013-01-24 06:12:00,
2013-01-23 23:22:00,26.0,18.0,-100.00,NNW,348,2.0,7.0,71,0.00,,,0.00,0.000000,,2013-01-24 06:22:00,
2013-01-23 23:32:00,26.0,18.0,-100.00,NNW,348,2.0,7.0,71,0.00,,,0.00,0.000000,,2013-01-24 06:32:00,
2013-01-23 23:42:00,24.0,18.0,-100.00,SSE,155,4.0,11.0,79,0.00,,,0.00,0.000000,,2013-01-24 06:42:00,